Time;durP1;ratioP1;P1;durP2;ratioP2;P2;SDS_P1;SDS_P2;PMS_P1;PMS_P2;Temp;Humidity;BMP_temperature;BMP_pressure;BME280_temperature;BME280_humidity;BME280_pressure;Samples;Min_cycle;Max_cycle;Signal;HPM_P1;HPM_P2
2021/12/21 00:00:49;;;;;;;11.57;5.60;;;4.70;73.80;;;;;;5088803;28;20116;-77
2021/12/21 00:03:15;;;;;;;8.25;4.68;;;4.60;73.70;;;;;;5094326;28;20077;-79
2021/12/21 00:05:41;;;;;;;9.32;4.97;;;4.60;73.90;;;;;;5083536;28;20020;-77
2021/12/21 00:08:10;;;;;;;8.95;4.82;;;4.60;73.80;;;;;;5083036;28;20031;-79
2021/12/21 00:10:36;;;;;;;8.82;4.65;;;4.70;74.00;;;;;;5081099;28;20080;-79
2021/12/21 00:13:06;;;;;;;9.60;4.78;;;4.70;73.60;;;;;;5081663;28;20471;-78
2021/12/21 00:20:45;;;;;;;6.35;3.53;;;4.70;73.20;;;;;;5080489;28;20033;-79
2021/12/21 00:25:39;;;;;;;7.95;4.20;;;4.80;73.40;;;;;;5085204;28;20024;-78
2021/12/21 00:28:05;;;;;;;9.90;4.70;;;4.90;73.40;;;;;;5086714;28;20023;-79
2021/12/21 00:30:31;;;;;;;9.55;4.40;;;4.90;73.30;;;;;;5081846;28;20012;-79
2021/12/21 00:32:57;;;;;;;10.32;4.32;;;4.90;73.20;;;;;;5086274;28;20035;-79
2021/12/21 00:35:22;;;;;;;8.48;4.40;;;4.90;73.20;;;;;;5082030;28;20032;-79
2021/12/21 00:37:48;;;;;;;9.80;4.38;;;5.00;73.30;;;;;;5090974;28;20043;-79
2021/12/21 00:40:14;;;;;;;6.65;3.65;;;5.00;73.20;;;;;;5085741;28;20102;-79
2021/12/21 00:42:40;;;;;;;8.73;4.43;;;5.00;73.20;;;;;;5083130;28;20024;-78
2021/12/21 00:45:07;;;;;;;6.85;3.50;;;5.00;73.30;;;;;;5082358;28;20027;-78
2021/12/21 00:47:34;;;;;;;10.00;4.50;;;5.10;73.30;;;;;;5082771;28;20028;-78
2021/12/21 00:50:03;;;;;;;8.68;4.28;;;5.10;73.20;;;;;;5080875;28;20032;-77
2021/12/21 00:52:29;;;;;;;6.25;3.78;;;5.10;73.10;;;;;;5079541;28;20484;-77
2021/12/21 00:54:55;;;;;;;8.52;4.80;;;5.10;73.10;;;;;;5079205;28;20032;-78
2021/12/21 00:57:21;;;;;;;6.80;3.97;;;5.00;73.10;;;;;;5083860;28;20194;-78
2021/12/21 00:59:46;;;;;;;8.20;3.90;;;5.00;73.30;;;;;;5083389;28;20467;-78
2021/12/21 01:02:12;;;;;;;8.93;4.35;;;5.00;73.20;;;;;;5081767;28;20559;-78
2021/12/21 01:04:46;;;;;;;6.93;3.60;;;4.90;73.30;;;;;;5087294;28;20421;-79
2021/12/21 01:12:52;;;;;;;7.55;4.20;;;4.80;73.80;;;;;;5093093;28;20054;-80
2021/12/21 01:18:06;;;;;;;7.22;4.20;;;4.90;73.60;;;;;;5095259;28;20026;-76
2021/12/21 01:20:39;;;;;;;8.00;3.83;;;4.90;73.50;;;;;;5097205;28;20032;-77
2021/12/21 01:25:57;;;;;;;8.95;4.10;;;4.70;73.50;;;;;;5100475;28;20385;-76
2021/12/21 01:36:13;;;;;;;10.60;5.93;;;4.50;74.10;;;;;;5095469;28;20043;-76
2021/12/21 01:38:53;;;;;;;7.50;4.55;;;4.60;74.00;;;;;;5095434;28;20008;-76
2021/12/21 01:52:04;;;;;;;6.93;4.18;;;4.60;73.40;;;;;;5097456;28;20466;-77
2021/12/21 01:54:30;;;;;;;7.55;4.70;;;4.50;73.40;;;;;;5097548;28;20656;-77
2021/12/21 01:56:55;;;;;;;8.40;5.00;;;4.40;73.60;;;;;;5097353;28;20031;-76
2021/12/21 01:59:21;;;;;;;9.32;5.78;;;4.40;73.60;;;;;;5103297;28;20019;-77
2021/12/21 02:01:46;;;;;;;9.13;5.20;;;4.40;73.50;;;;;;5090686;28;20028;-76
2021/12/21 02:04:15;;;;;;;9.73;5.63;;;4.40;74.10;;;;;;5096721;28;20032;-76
2021/12/21 02:06:42;;;;;;;8.93;5.18;;;4.40;73.60;;;;;;5095632;28;20012;-76
2021/12/21 02:09:08;;;;;;;12.77;5.65;;;4.30;74.10;;;;;;5104286;28;20020;-76
2021/12/21 02:11:34;;;;;;;9.65;5.07;;;4.30;73.50;;;;;;5101879;28;20476;-76
2021/12/21 02:14:00;;;;;;;10.00;5.43;;;4.30;73.60;;;;;;5097610;28;20055;-79
2021/12/21 02:16:34;;;;;;;10.65;5.80;;;4.30;73.50;;;;;;5094648;28;20039;-78
2021/12/21 02:19:08;;;;;;;10.98;5.05;;;4.20;73.60;;;;;;5096998;28;20098;-78
2021/12/21 02:21:47;;;;;;;8.48;5.13;;;4.30;73.70;;;;;;5098097;28;20500;-76
2021/12/21 02:24:18;;;;;;;8.30;4.82;;;4.20;73.60;;;;;;5101038;28;20114;-75
2021/12/21 02:27:56;;;;;;;8.20;5.15;;;4.20;73.60;;;;;;5091484;28;20020;-77
2021/12/21 02:29:39;;;;;;;7.45;3.97;;;4.20;73.70;;;;;;5091420;28;20039;-77
2021/12/21 02:32:05;;;;;;;8.15;4.35;;;4.20;73.70;;;;;;5096539;28;20012;-76
2021/12/21 02:34:30;;;;;;;8.63;4.10;;;4.10;73.70;;;;;;5086622;28;20027;-75
2021/12/21 02:36:57;;;;;;;8.18;4.03;;;4.10;73.80;;;;;;5101251;28;20386;-77
2021/12/21 02:39:24;;;;;;;5.93;3.67;;;4.10;73.90;;;;;;5099551;28;20023;-76
2021/12/21 02:41:50;;;;;;;6.10;3.33;;;4.10;73.90;;;;;;5088364;28;20039;-76
2021/12/21 02:44:17;;;;;;;8.75;4.40;;;4.00;73.90;;;;;;5087997;28;20035;-77
2021/12/21 02:46:43;;;;;;;6.93;3.80;;;4.10;74.10;;;;;;5097595;28;20028;-77
2021/12/21 02:49:10;;;;;;;7.72;3.97;;;4.10;74.10;;;;;;5089456;28;20413;-76
2021/12/21 02:51:41;;;;;;;7.88;3.90;;;4.20;74.10;;;;;;5094721;28;20016;-77
2021/12/21 02:54:07;;;;;;;7.30;3.78;;;4.20;74.00;;;;;;5093166;28;20543;-76
2021/12/21 02:56:33;;;;;;;6.05;3.65;;;4.20;74.00;;;;;;5096811;28;20039;-77
2021/12/21 02:58:58;;;;;;;8.85;3.58;;;4.30;74.00;;;;;;5096852;28;20378;-77
2021/12/21 03:01:24;;;;;;;6.22;2.92;;;4.30;73.90;;;;;;5094793;28;20070;-79
2021/12/21 03:03:51;;;;;;;5.82;3.00;;;4.20;73.80;;;;;;5101932;28;20027;-77
2021/12/21 03:07:07;;;;;;;7.05;4.07;;;4.20;73.90;;;;;;5098426;28;20056;-77
2021/12/21 03:09:28;;;;;;;9.95;4.85;;;4.30;74.10;;;;;;5102420;28;20023;-77
2021/12/21 03:14:21;;;;;;;8.98;5.10;;;4.40;74.10;;;;;;5101394;28;20028;-77
2021/12/21 03:16:47;;;;;;;6.03;4.13;;;4.40;74.00;;;;;;5096101;28;20039;-77
2021/12/21 03:19:12;;;;;;;8.57;5.30;;;4.50;74.10;;;;;;5099600;28;20028;-76
2021/12/21 03:21:39;;;;;;;11.13;6.32;;;4.50;74.10;;;;;;5100004;28;20028;-77
2021/12/21 03:24:05;;;;;;;12.57;6.90;;;4.60;74.00;;;;;;5102737;28;20026;-76
2021/12/21 03:26:31;;;;;;;10.32;5.80;;;4.60;74.00;;;;;;5099642;28;20444;-76
2021/12/21 03:28:57;;;;;;;8.77;5.22;;;4.60;74.00;;;;;;5101795;28;20024;-76
2021/12/21 03:31:22;;;;;;;7.40;4.50;;;4.70;73.90;;;;;;5101683;28;20031;-76
2021/12/21 03:33:50;;;;;;;8.73;5.45;;;4.70;73.90;;;;;;5100008;28;20116;-76
2021/12/21 03:36:17;;;;;;;8.73;5.30;;;4.60;73.80;;;;;;5098244;28;20036;-76
2021/12/21 03:38:58;;;;;;;8.85;6.07;;;4.60;73.90;;;;;;5089644;28;20020;-76
2021/12/21 03:41:24;;;;;;;8.18;5.40;;;4.60;73.90;;;;;;5098385;28;20032;-76
2021/12/21 03:43:50;;;;;;;7.22;4.85;;;4.60;73.90;;;;;;5094842;28;20390;-77
2021/12/21 03:46:16;;;;;;;9.35;6.22;;;4.60;74.10;;;;;;5101482;28;20064;-77
2021/12/21 03:48:45;;;;;;;10.00;5.90;;;4.60;74.10;;;;;;5088767;28;20020;-75
2021/12/21 03:51:11;;;;;;;10.05;6.15;;;4.60;74.10;;;;;;5092009;28;20024;-76
2021/12/21 03:53:37;;;;;;;11.40;6.05;;;4.60;73.90;;;;;;5098979;28;20026;-77
2021/12/21 03:58:42;;;;;;;8.63;5.13;;;4.50;73.80;;;;;;5098766;28;20081;-76
2021/12/21 04:01:09;;;;;;;9.93;5.75;;;4.50;73.70;;;;;;5097798;28;20028;-77
2021/12/21 04:03:34;;;;;;;8.45;5.20;;;4.50;73.70;;;;;;5100196;28;20099;-77
2021/12/21 04:06:00;;;;;;;7.40;4.47;;;4.50;73.70;;;;;;5097821;28;20153;-77
2021/12/21 04:08:26;;;;;;;8.88;5.50;;;4.50;73.70;;;;;;5100567;28;20069;-77
2021/12/21 04:10:51;;;;;;;7.43;4.93;;;4.50;73.70;;;;;;5094463;27;20016;-78
2021/12/21 04:13:17;;;;;;;9.63;5.57;;;4.50;73.70;;;;;;5100007;28;20039;-78
2021/12/21 04:15:43;;;;;;;9.40;5.68;;;4.50;73.60;;;;;;5109754;28;20371;-77
2021/12/21 04:18:13;;;;;;;9.18;5.75;;;4.50;73.50;;;;;;5093115;28;20020;-78
2021/12/21 04:20:39;;;;;;;8.20;5.00;;;4.60;73.50;;;;;;5102732;28;20023;-77
2021/12/21 04:23:06;;;;;;;8.82;5.28;;;4.60;73.40;;;;;;5098333;28;20024;-77
2021/12/21 04:25:31;;;;;;;9.27;5.88;;;4.60;73.40;;;;;;5090363;28;20355;-76
2021/12/21 04:27:57;;;;;;;8.52;5.43;;;4.60;73.40;;;;;;5099470;28;20027;-77
2021/12/21 04:30:23;;;;;;;9.50;5.78;;;4.60;73.50;;;;;;5095558;28;20028;-76
2021/12/21 04:32:48;;;;;;;11.63;6.22;;;4.60;73.50;;;;;;5098652;28;20027;-77
2021/12/21 04:35:19;;;;;;;9.48;5.57;;;4.60;73.40;;;;;;5100565;28;20389;-77
2021/12/21 04:37:48;;;;;;;9.90;5.47;;;4.60;73.30;;;;;;5100976;28;20020;-77
2021/12/21 04:40:17;;;;;;;8.00;5.32;;;4.50;73.20;;;;;;5100273;28;20031;-77
2021/12/21 04:42:43;;;;;;;8.70;4.97;;;4.50;73.30;;;;;;5096246;28;20020;-77
2021/12/21 04:45:09;;;;;;;7.60;4.95;;;4.40;73.40;;;;;;5107197;28;20065;-78
2021/12/21 04:47:34;;;;;;;8.73;6.03;;;4.40;73.50;;;;;;5100696;28;20030;-78
2021/12/21 04:50:00;;;;;;;8.43;5.93;;;4.30;73.50;;;;;;5090722;28;20527;-78
2021/12/21 04:52:25;;;;;;;10.75;5.25;;;4.20;73.50;;;;;;5095398;28;20308;-78
2021/12/21 04:54:51;;;;;;;7.80;4.85;;;4.30;73.40;;;;;;5090950;28;20471;-77
2021/12/21 04:57:16;;;;;;;8.32;5.40;;;4.30;73.60;;;;;;5092207;28;20044;-77
2021/12/21 04:59:42;;;;;;;8.38;4.80;;;4.30;73.50;;;;;;5098160;28;20398;-77
2021/12/21 05:02:07;;;;;;;9.50;5.30;;;4.30;73.50;;;;;;5098257;28;20071;-78
2021/12/21 05:04:33;;;;;;;7.32;5.35;;;4.30;73.60;;;;;;5092710;28;20039;-78
2021/12/21 05:06:58;;;;;;;8.45;5.18;;;4.30;73.60;;;;;;5088436;28;20031;-78
2021/12/21 05:09:27;;;;;;;11.35;5.10;;;4.30;73.50;;;;;;5082498;28;20092;-78
2021/12/21 05:12:00;;;;;;;8.30;5.05;;;4.30;73.40;;;;;;5088102;28;20016;-78
2021/12/21 05:14:25;;;;;;;8.90;5.32;;;4.20;73.40;;;;;;5093688;28;20106;-78
2021/12/21 05:16:51;;;;;;;8.55;5.40;;;4.20;73.50;;;;;;5090441;28;20127;-78
2021/12/21 05:19:16;;;;;;;6.65;4.20;;;4.20;73.60;;;;;;5084011;28;20799;-78
2021/12/21 05:21:42;;;;;;;7.40;4.40;;;4.20;73.50;;;;;;5088260;28;20016;-77
2021/12/21 05:24:07;;;;;;;8.77;5.00;;;4.20;73.40;;;;;;5100244;28;20031;-78
2021/12/21 05:26:33;;;;;;;9.30;4.82;;;4.30;73.30;;;;;;5100303;28;20393;-79
2021/12/21 05:28:59;;;;;;;7.15;4.65;;;4.30;73.20;;;;;;5094303;28;20047;-79
2021/12/21 05:31:24;;;;;;;9.43;5.20;;;4.30;73.10;;;;;;5101819;28;20466;-79
2021/12/21 05:33:51;;;;;;;9.98;5.57;;;4.30;73.20;;;;;;5103260;28;20046;-79
2021/12/21 05:36:20;;;;;;;9.57;5.47;;;4.30;72.90;;;;;;5100190;28;20038;-78
2021/12/21 05:38:49;;;;;;;8.50;5.15;;;4.30;72.90;;;;;;5087528;28;20047;-77
2021/12/21 05:41:25;;;;;;;8.70;4.93;;;4.20;72.60;;;;;;5094455;28;20474;-78
2021/12/21 05:43:51;;;;;;;10.15;5.43;;;4.10;72.50;;;;;;5095501;28;20382;-81
2021/12/21 05:46:16;;;;;;;8.30;5.05;;;4.10;72.50;;;;;;5093038;28;20031;-78
2021/12/21 05:48:42;;;;;;;8.88;4.80;;;4.10;72.70;;;;;;5090393;28;20458;-77
2021/12/21 05:51:07;;;;;;;8.40;4.47;;;4.10;72.80;;;;;;5094956;28;20036;-78
2021/12/21 05:53:33;;;;;;;6.72;3.80;;;4.20;72.90;;;;;;5079545;28;20067;-80
2021/12/21 05:55:58;;;;;;;7.55;4.35;;;4.30;72.90;;;;;;5101877;28;20051;-80
2021/12/21 05:58:24;;;;;;;7.20;4.28;;;4.30;72.80;;;;;;5099951;28;20035;-79
2021/12/21 06:00:49;;;;;;;7.43;4.03;;;4.40;72.80;;;;;;5105516;28;20035;-78
2021/12/21 06:03:15;;;;;;;7.40;4.80;;;4.40;72.80;;;;;;5102603;28;20057;-78
2021/12/21 06:05:41;;;;;;;6.28;4.00;;;4.40;72.50;;;;;;5091804;28;20032;-78
2021/12/21 06:08:06;;;;;;;7.10;3.90;;;4.40;72.60;;;;;;5074329;28;20078;-78
2021/12/21 06:10:39;;;;;;;7.32;4.25;;;4.40;72.60;;;;;;5099060;28;20055;-79
2021/12/21 06:26:21;;;;;;;8.98;5.47;;;4.20;72.20;;;;;;5100450;28;20036;-78
2021/12/21 06:28:47;;;;;;;8.43;5.70;;;4.10;72.30;;;;;;5096914;28;20023;-79
2021/12/21 06:31:14;;;;;;;9.68;5.47;;;4.10;72.50;;;;;;5089712;28;20031;-78
2021/12/21 06:33:40;;;;;;;7.80;5.13;;;4.10;72.60;;;;;;5097795;28;20024;-78
2021/12/21 06:36:07;;;;;;;9.80;5.45;;;4.10;72.70;;;;;;5097065;28;20436;-78
2021/12/21 06:38:32;;;;;;;11.68;6.78;;;4.10;72.70;;;;;;5098157;28;20449;-78
2021/12/21 06:40:58;;;;;;;7.68;4.32;;;4.20;72.80;;;;;;5094330;28;20110;-78
2021/12/21 06:43:24;;;;;;;7.32;4.55;;;4.10;72.80;;;;;;5085558;28;20105;-78
2021/12/21 06:46:02;;;;;;;9.90;6.07;;;4.10;72.80;;;;;;5102038;28;20058;-79
2021/12/21 06:51:36;;;;;;;9.27;4.60;;;4.10;72.90;;;;;;5081046;28;20065;-78
2021/12/21 06:54:02;;;;;;;9.77;5.45;;;4.10;73.10;;;;;;5091601;28;20022;-79
2021/12/21 06:56:28;;;;;;;8.82;6.00;;;4.10;73.10;;;;;;5089893;28;20473;-79
2021/12/21 06:58:55;;;;;;;12.38;7.30;;;4.00;72.80;;;;;;5087090;28;20024;-78
2021/12/21 07:01:22;;;;;;;8.30;5.88;;;3.90;72.60;;;;;;5095681;28;20069;-78
2021/12/21 07:03:48;;;;;;;9.50;6.13;;;3.90;72.80;;;;;;5096181;28;20028;-78
2021/12/21 07:06:16;;;;;;;13.43;7.65;;;3.90;73.00;;;;;;5102063;28;20428;-78
2021/12/21 07:08:58;;;;;;;9.65;6.03;;;3.80;72.90;;;;;;5100190;28;20164;-82
2021/12/21 07:11:30;;;;;;;10.57;6.45;;;3.80;73.10;;;;;;5093239;28;20092;-78
2021/12/21 07:19:25;;;;;;;10.70;7.50;;;3.50;73.00;;;;;;5086873;28;20095;-78
2021/12/21 07:21:50;;;;;;;11.38;6.75;;;3.30;73.20;;;;;;5090544;28;20540;-79
2021/12/21 07:24:16;;;;;;;10.02;6.53;;;3.30;73.50;;;;;;5090865;28;20134;-78
2021/12/21 07:26:42;;;;;;;9.50;5.55;;;3.20;73.70;;;;;;5089905;28;20035;-78
2021/12/21 07:29:07;;;;;;;10.45;5.32;;;3.10;73.90;;;;;;5089296;28;20032;-77
2021/12/21 07:31:33;;;;;;;9.93;6.28;;;3.10;74.00;;;;;;5085923;28;20015;-77
2021/12/21 07:33:59;;;;;;;8.85;5.93;;;3.10;74.10;;;;;;5089519;28;20098;-76
2021/12/21 07:36:32;;;;;;;11.02;6.72;;;3.00;74.10;;;;;;5092294;28;20121;-77
2021/12/21 07:39:06;;;;;;;13.23;7.47;;;3.00;74.10;;;;;;5085877;28;20032;-76
2021/12/21 07:41:32;;;;;;;11.07;7.13;;;2.90;74.20;;;;;;5086868;28;20020;-79
2021/12/21 07:43:57;;;;;;;7.90;5.38;;;2.90;74.30;;;;;;5080428;28;20103;-76
2021/12/21 07:46:23;;;;;;;10.68;6.65;;;2.90;74.30;;;;;;5087527;28;20110;-77
2021/12/21 07:48:49;;;;;;;13.65;7.13;;;2.90;74.40;;;;;;5093578;28;20020;-77
2021/12/21 07:51:15;;;;;;;11.70;7.03;;;2.90;74.40;;;;;;5090858;28;20028;-77
2021/12/21 07:53:42;;;;;;;11.63;6.25;;;2.80;74.40;;;;;;5088585;28;20035;-77
2021/12/21 07:56:08;;;;;;;11.30;7.32;;;2.80;74.50;;;;;;5085298;28;20029;-77
2021/12/21 07:58:35;;;;;;;8.98;5.88;;;2.90;74.60;;;;;;5096725;28;20030;-78
2021/12/21 08:01:03;;;;;;;12.60;7.53;;;2.80;74.40;;;;;;5080588;28;20063;-77
2021/12/21 08:03:30;;;;;;;16.80;9.45;;;2.80;74.40;;;;;;5078982;28;20025;-76
2021/12/21 08:05:58;;;;;;;10.75;6.97;;;2.80;74.50;;;;;;5077911;28;20026;-75
2021/12/21 08:08:27;;;;;;;12.05;7.78;;;2.80;74.60;;;;;;5081044;28;20062;-82
2021/12/21 08:11:07;;;;;;;11.85;7.93;;;2.80;74.60;;;;;;5076106;28;21029;-82
2021/12/21 08:13:40;;;;;;;10.27;6.55;;;2.70;74.60;;;;;;5080006;28;20028;-90
2021/12/21 08:16:06;;;;;;;12.10;8.10;;;2.80;74.70;;;;;;5087004;28;20032;-88
2021/12/21 08:18:32;;;;;;;13.10;7.22;;;2.70;74.60;;;;;;5090720;28;20024;-93
2021/12/21 08:20:58;;;;;;;14.75;9.18;;;2.70;74.80;;;;;;5086051;28;20636;-91
2021/12/21 08:23:24;;;;;;;10.82;7.82;;;2.60;75.40;;;;;;5087540;28;20085;-86
2021/12/21 08:25:50;;;;;;;13.52;9.05;;;2.60;74.90;;;;;;5096604;28;20054;-82
2021/12/21 08:28:16;;;;;;;14.73;8.95;;;2.50;74.90;;;;;;5083197;28;20028;-85
2021/12/21 08:30:42;;;;;;;17.05;9.98;;;2.50;75.00;;;;;;5083276;28;20119;-83
2021/12/21 08:33:08;;;;;;;13.38;8.85;;;2.50;75.20;;;;;;5085489;28;20032;-82
2021/12/21 08:35:33;;;;;;;9.65;6.22;;;2.50;75.30;;;;;;5081040;28;20055;-81
2021/12/21 08:38:05;;;;;;;9.23;6.30;;;2.60;75.30;;;;;;5079829;28;20048;-84
2021/12/21 08:40:38;;;;;;;12.88;8.43;;;2.60;75.30;;;;;;5074778;28;20024;-89
2021/12/21 08:43:10;;;;;;;12.82;7.82;;;2.60;75.20;;;;;;5079761;28;20024;-85
2021/12/21 08:45:37;;;;;;;13.43;8.57;;;2.70;75.30;;;;;;5077277;28;20045;-81
2021/12/21 08:48:05;;;;;;;13.52;7.50;;;2.70;75.20;;;;;;5079456;28;21731;-82
2021/12/21 08:50:31;;;;;;;8.10;5.75;;;2.70;75.20;;;;;;5076215;28;20098;-85
2021/12/21 08:52:57;;;;;;;11.15;7.00;;;2.80;75.30;;;;;;5078125;28;20076;-83
2021/12/21 08:55:23;;;;;;;13.15;8.40;;;2.80;75.20;;;;;;5080803;28;20031;-84
2021/12/21 08:57:48;;;;;;;14.82;9.05;;;2.80;75.20;;;;;;5078659;28;20028;-82
2021/12/21 09:00:14;;;;;;;13.13;8.88;;;2.90;75.20;;;;;;5073827;28;20024;-79
2021/12/21 09:02:40;;;;;;;12.95;8.05;;;2.90;75.20;;;;;;5073733;28;20060;-81
2021/12/21 09:05:11;;;;;;;14.43;8.40;;;2.90;75.20;;;;;;5074151;28;20052;-79
2021/12/21 09:07:39;;;;;;;13.40;8.38;;;3.00;75.20;;;;;;5075262;28;20446;-78
2021/12/21 09:10:07;;;;;;;11.52;7.55;;;3.10;75.20;;;;;;5075961;28;20051;-80
2021/12/21 09:12:33;;;;;;;10.82;7.38;;;3.10;75.10;;;;;;5076805;28;20028;-80
2021/12/21 09:14:59;;;;;;;14.45;8.02;;;3.10;75.10;;;;;;5075115;28;20020;-84
2021/12/21 09:17:25;;;;;;;12.45;7.55;;;3.20;75.10;;;;;;5076645;28;20051;-81
2021/12/21 09:19:51;;;;;;;11.70;7.63;;;3.20;75.10;;;;;;5082724;28;20020;-80
2021/12/21 09:22:17;;;;;;;12.18;8.23;;;3.20;75.10;;;;;;5080598;28;20466;-82
2021/12/21 09:24:43;;;;;;;12.10;8.32;;;3.30;75.00;;;;;;5080048;28;20036;-81
2021/12/21 09:27:08;;;;;;;15.75;9.50;;;3.30;74.90;;;;;;5088607;28;20024;-80
2021/12/21 09:29:34;;;;;;;12.88;8.48;;;3.30;74.70;;;;;;5085232;28;20031;-81
2021/12/21 09:32:00;;;;;;;15.13;9.18;;;3.40;74.80;;;;;;5085789;28;20024;-81
2021/12/21 09:34:25;;;;;;;16.92;10.40;;;3.40;74.80;;;;;;5075218;28;20471;-81
2021/12/21 09:36:52;;;;;;;19.77;9.98;;;3.40;74.70;;;;;;5089898;28;20127;-81
2021/12/21 09:39:18;;;;;;;12.65;8.88;;;3.40;74.80;;;;;;5090795;28;20028;-83
2021/12/21 09:41:45;;;;;;;12.40;8.20;;;3.40;74.80;;;;;;5088846;28;20497;-85
2021/12/21 09:44:11;;;;;;;21.85;11.40;;;3.40;74.70;;;;;;5084542;28;20024;-81
2021/12/21 09:46:37;;;;;;;20.25;11.32;;;3.40;74.70;;;;;;5082465;28;20035;-82
2021/12/21 09:49:02;;;;;;;18.15;10.75;;;3.50;74.80;;;;;;5086572;28;20031;-83
2021/12/21 09:51:28;;;;;;;15.02;9.50;;;3.50;74.70;;;;;;5089991;28;20027;-80
2021/12/21 09:53:56;;;;;;;15.35;9.10;;;3.50;74.70;;;;;;5082845;28;20392;-82
2021/12/21 09:56:22;;;;;;;17.00;11.07;;;3.50;74.80;;;;;;5088827;28;20039;-80
2021/12/21 09:58:48;;;;;;;18.40;11.27;;;3.40;74.70;;;;;;5091742;28;20025;-82
2021/12/21 10:01:15;;;;;;;20.35;12.27;;;3.40;74.80;;;;;;5083787;28;20032;-82
2021/12/21 10:03:40;;;;;;;17.05;11.32;;;3.40;74.80;;;;;;5084015;28;20364;-83
2021/12/21 10:06:10;;;;;;;16.55;10.48;;;3.50;74.90;;;;;;5090641;28;20027;-81
2021/12/21 10:08:36;;;;;;;15.07;9.68;;;3.50;74.80;;;;;;5089689;28;20024;-83
2021/12/21 10:11:04;;;;;;;17.45;10.88;;;3.50;75.40;;;;;;5096833;28;20028;-83
2021/12/21 10:13:30;;;;;;;18.13;11.48;;;3.60;74.80;;;;;;5093257;28;20044;-87
2021/12/21 10:16:02;;;;;;;17.05;12.05;;;3.50;74.70;;;;;;5084945;28;20034;-84
2021/12/21 10:18:32;;;;;;;13.07;10.20;;;3.50;74.70;;;;;;5090697;28;20032;-83
2021/12/21 10:21:00;;;;;;;19.05;11.88;;;3.50;74.80;;;;;;5086608;28;20277;-82
2021/12/21 10:23:30;;;;;;;19.88;13.18;;;3.50;74.90;;;;;;5079863;28;20035;-83
2021/12/21 10:25:59;;;;;;;15.32;10.73;;;3.50;75.00;;;;;;5089791;28;20052;-87
2021/12/21 10:28:29;;;;;;;20.08;12.77;;;3.60;75.00;;;;;;5081035;28;20132;-84
2021/12/21 10:30:55;;;;;;;21.45;14.45;;;3.60;75.00;;;;;;5082491;28;20422;-84
2021/12/21 10:33:23;;;;;;;15.65;10.88;;;3.70;74.80;;;;;;5093786;28;20031;-88
2021/12/21 10:35:50;;;;;;;17.33;12.45;;;3.70;74.80;;;;;;5094459;28;20770;-83
2021/12/21 10:38:32;;;;;;;19.80;12.20;;;3.70;74.80;;;;;;5075332;28;20028;-82
2021/12/21 10:41:12;;;;;;;13.52;8.95;;;3.80;74.80;;;;;;5084910;28;20678;-81
2021/12/21 10:43:39;;;;;;;14.15;9.00;;;3.80;74.70;;;;;;5081612;28;20024;-79
2021/12/21 10:46:05;;;;;;;19.17;12.00;;;3.90;74.70;;;;;;5081556;28;20020;-83
2021/12/21 10:48:35;;;;;;;17.48;11.68;;;3.90;74.60;;;;;;5084144;28;20031;-79
2021/12/21 10:51:02;;;;;;;16.08;10.20;;;4.00;74.60;;;;;;5093149;28;20015;-79
2021/12/21 10:53:27;;;;;;;19.75;12.32;;;4.00;74.50;;;;;;5093204;28;20132;-88
2021/12/21 10:56:06;;;;;;;17.10;11.43;;;4.10;74.20;;;;;;5088326;28;20036;-82
2021/12/21 10:58:36;;;;;;;21.30;14.48;;;4.00;74.10;;;;;;5089131;28;20483;-80
2021/12/21 11:01:05;;;;;;;26.13;15.75;;;4.00;73.90;;;;;;5090935;28;20027;-80
2021/12/21 11:03:50;;;;;;;19.90;13.40;;;3.90;74.00;;;;;;5090182;28;20016;-78
2021/12/21 11:06:19;;;;;;;20.05;13.45;;;3.90;74.20;;;;;;5089628;28;20038;-79
2021/12/21 11:08:51;;;;;;;20.08;12.52;;;3.90;74.00;;;;;;5085646;28;20012;-78
2021/12/21 11:11:33;;;;;;;16.88;11.20;;;4.00;74.20;;;;;;5097116;28;20023;-79
2021/12/21 11:14:02;;;;;;;17.00;11.85;;;4.10;74.10;;;;;;5080142;28;20540;-77
2021/12/21 11:16:40;;;;;;;18.20;11.30;;;4.10;73.90;;;;;;5086335;28;20032;-79
2021/12/21 11:19:09;;;;;;;12.35;8.60;;;4.20;74.00;;;;;;5078083;28;20036;-80
2021/12/21 11:21:35;;;;;;;13.88;8.63;;;4.20;73.80;;;;;;5078875;28;20028;-81
2021/12/21 11:24:07;;;;;;;17.08;11.32;;;4.20;73.70;;;;;;5079563;28;20070;-80
2021/12/21 11:26:35;;;;;;;12.52;8.30;;;4.20;73.40;;;;;;5083125;28;20103;-79
2021/12/21 11:29:14;;;;;;;12.70;8.65;;;4.20;73.60;;;;;;5080870;28;20410;-80
2021/12/21 11:31:43;;;;;;;14.15;9.07;;;4.30;73.60;;;;;;5082170;28;20064;-80
2021/12/21 11:34:14;;;;;;;11.98;7.30;;;4.30;73.50;;;;;;5079312;28;20448;-80
2021/12/21 11:39:31;;;;;;;12.90;8.75;;;4.40;73.30;;;;;;5081376;28;20123;-82
2021/12/21 11:41:58;;;;;;;14.88;8.52;;;4.50;73.10;;;;;;5094759;28;20435;-83
2021/12/21 11:44:36;;;;;;;14.02;8.48;;;4.50;72.90;;;;;;5081665;28;20012;-80
2021/12/21 11:47:02;;;;;;;15.05;9.65;;;4.60;73.10;;;;;;5079832;28;20055;-83
2021/12/21 11:49:39;;;;;;;14.43;9.65;;;4.60;72.80;;;;;;5087426;28;20112;-83
2021/12/21 11:52:07;;;;;;;10.73;6.90;;;4.60;72.70;;;;;;5091095;28;20115;-86
2021/12/21 11:54:44;;;;;;;10.10;6.45;;;4.70;72.70;;;;;;5082369;28;20051;-85
2021/12/21 11:57:09;;;;;;;13.57;8.50;;;4.60;72.50;;;;;;5079321;28;20043;-84
2021/12/21 11:59:35;;;;;;;16.45;9.75;;;4.70;72.40;;;;;;5079604;28;20360;-82
2021/12/21 12:02:03;;;;;;;19.33;11.57;;;4.70;72.10;;;;;;5080719;28;20031;-85
2021/12/21 12:04:29;;;;;;;14.65;9.35;;;4.60;71.80;;;;;;5074521;28;20032;-86
2021/12/21 12:06:57;;;;;;;15.88;10.43;;;4.70;72.00;;;;;;5082001;28;20032;-85
2021/12/21 12:09:33;;;;;;;17.30;11.30;;;4.70;71.70;;;;;;5079172;28;20032;-86
2021/12/21 12:12:11;;;;;;;16.23;9.90;;;4.70;71.80;;;;;;5080757;28;20024;-88
2021/12/21 12:14:38;;;;;;;14.70;7.72;;;4.70;71.70;;;;;;5085204;28;20036;-85
2021/12/21 12:17:26;;;;;;;14.77;8.55;;;4.80;71.80;;;;;;5079254;28;20028;-90
2021/12/21 12:20:02;;;;;;;11.45;6.78;;;4.90;71.70;;;;;;5092201;28;20032;-83
2021/12/21 12:22:37;;;;;;;13.82;8.10;;;5.00;71.60;;;;;;5083447;28;20020;-84
2021/12/21 12:25:08;;;;;;;14.45;8.55;;;5.00;71.30;;;;;;5085083;28;20020;-89
2021/12/21 12:27:46;;;;;;;14.30;7.57;;;5.00;71.10;;;;;;5080852;28;20035;-91
2021/12/21 12:30:18;;;;;;;11.82;8.07;;;5.00;71.00;;;;;;5105034;28;20107;-93
2021/12/21 12:32:55;;;;;;;10.20;6.80;;;4.90;70.90;;;;;;5083263;28;20043;-92
2021/12/21 12:35:25;;;;;;;12.63;6.93;;;5.00;71.00;;;;;;5110847;28;20034;-92
2021/12/21 12:37:58;;;;;;;9.55;6.18;;;5.00;70.80;;;;;;5097423;28;20107;-91
2021/12/21 12:40:33;;;;;;;9.27;5.47;;;5.00;70.90;;;;;;5086927;28;20031;-84
2021/12/21 12:43:08;;;;;;;10.23;6.80;;;5.10;70.50;;;;;;5084225;28;20032;-85
2021/12/21 12:45:40;;;;;;;9.35;5.72;;;5.00;70.30;;;;;;5077996;28;20047;-84
2021/12/21 12:48:18;;;;;;;10.83;7.77;;;5.10;70.50;;;;;;5089292;28;20030;-90
2021/12/21 12:50:45;;;;;;;11.15;7.13;;;5.10;70.00;;;;;;5085747;28;20027;-86
2021/12/21 12:53:10;;;;;;;12.18;7.07;;;5.00;69.40;;;;;;5091244;28;20080;-84
2021/12/21 12:55:55;;;;;;;9.27;6.03;;;5.00;69.70;;;;;;5085767;28;20186;-83
2021/12/21 12:58:24;;;;;;;9.63;6.43;;;5.00;69.80;;;;;;5089990;28;20443;-84
2021/12/21 13:00:57;;;;;;;8.65;5.50;;;5.00;69.70;;;;;;5088648;28;20087;-82
2021/12/21 13:03:32;;;;;;;9.68;5.22;;;5.00;69.90;;;;;;5094295;28;20067;-82
2021/12/21 13:05:59;;;;;;;10.43;5.35;;;5.00;68.70;;;;;;5076991;28;20081;-82
2021/12/21 13:08:27;;;;;;;8.25;5.20;;;4.90;68.10;;;;;;5089897;28;20035;-83
2021/12/21 13:10:56;;;;;;;9.07;5.50;;;4.90;68.40;;;;;;5093295;28;20126;-82
2021/12/21 13:13:32;;;;;;;10.02;5.70;;;5.00;68.60;;;;;;5098110;28;20122;-83
2021/12/21 13:16:05;;;;;;;7.78;5.10;;;5.00;68.70;;;;;;5089116;28;20058;-81
2021/12/21 13:18:31;;;;;;;9.02;6.53;;;5.00;68.80;;;;;;5083554;28;20020;-86
2021/12/21 13:20:59;;;;;;;10.15;5.57;;;4.90;68.70;;;;;;5087519;28;20024;-82
2021/12/21 13:23:26;;;;;;;10.00;6.30;;;5.00;69.00;;;;;;5092438;28;20025;-82
2021/12/21 13:26:00;;;;;;;11.85;6.68;;;5.00;69.20;;;;;;5085410;28;20031;-84
2021/12/21 13:28:29;;;;;;;7.60;5.45;;;5.00;69.10;;;;;;5083734;28;20482;-87
2021/12/21 13:30:57;;;;;;;9.75;5.57;;;5.00;69.10;;;;;;5093854;28;20011;-83
2021/12/21 13:33:25;;;;;;;8.48;6.32;;;5.00;68.80;;;;;;5092715;28;20028;-81
2021/12/21 13:35:53;;;;;;;8.52;5.90;;;5.00;69.00;;;;;;5095069;28;20778;-79
2021/12/21 13:38:20;;;;;;;10.75;5.95;;;5.00;69.10;;;;;;5088150;28;20023;-82
2021/12/21 13:41:11;;;;;;;9.23;5.88;;;4.90;69.10;;;;;;5093847;28;20109;-82
2021/12/21 13:43:39;;;;;;;6.38;4.55;;;4.90;69.00;;;;;;5084043;28;20028;-81
2021/12/21 13:46:08;;;;;;;5.47;3.08;;;4.80;67.90;;;;;;5078555;28;20016;-79
2021/12/21 13:48:36;;;;;;;8.50;4.32;;;4.80;68.30;;;;;;5086130;28;20028;-80
2021/12/21 13:51:10;;;;;;;6.10;3.95;;;4.70;67.50;;;;;;5087867;28;20036;-79
2021/12/21 13:53:43;;;;;;;5.60;3.70;;;4.60;67.80;;;;;;5085224;28;20028;-80
2021/12/21 13:56:18;;;;;;;6.38;3.22;;;4.70;68.40;;;;;;5086116;28;20746;-83
2021/12/21 13:58:45;;;;;;;6.85;3.63;;;4.60;68.40;;;;;;5087876;28;20024;-80
2021/12/21 14:01:19;;;;;;;7.38;3.30;;;4.60;68.50;;;;;;5103756;28;20020;-80
2021/12/21 14:03:55;;;;;;;7.68;3.90;;;4.60;68.70;;;;;;5102023;28;20024;-81